createdAt,value
2018-08-11T00:00:08.072Z,16.89
2018-08-11T00:01:08.087Z,16.92
2018-08-11T00:02:08.112Z,16.94
2018-08-11T00:03:08.138Z,16.87
2018-08-11T00:04:08.163Z,16.98
2018-08-11T00:05:08.176Z,16.95
2018-08-11T00:06:08.202Z,16.95
2018-08-11T00:07:08.216Z,16.86
2018-08-11T00:08:08.243Z,16.92
2018-08-11T00:09:08.268Z,16.98
2018-08-11T00:10:08.282Z,16.89
2018-08-11T00:11:08.306Z,16.97
2018-08-11T00:12:08.333Z,16.98
2018-08-11T00:13:08.360Z,16.98
2018-08-11T00:14:08.372Z,17.01
2018-08-11T00:15:08.399Z,17.01
2018-08-11T00:16:08.425Z,17.02
2018-08-11T00:17:08.437Z,17.02
2018-08-11T00:18:08.463Z,17.07
2018-08-11T00:19:08.490Z,17.01
2018-08-11T00:20:08.503Z,17.01
2018-08-11T00:21:08.530Z,17.09
2018-08-11T00:22:08.555Z,16.98
2018-08-11T00:23:08.567Z,17.02
2018-08-11T00:24:08.598Z,16.99
2018-08-11T00:25:08.620Z,17.09
2018-08-11T00:26:08.634Z,17.16
2018-08-11T00:27:08.659Z,17.10
2018-08-11T00:28:08.686Z,17.09
2018-08-11T00:29:08.699Z,17.16
2018-08-11T00:30:08.725Z,17.16
2018-08-11T00:31:08.750Z,17.14
2018-08-11T00:32:08.764Z,17.19
2018-08-11T00:33:08.791Z,17.20
2018-08-11T00:34:08.817Z,17.20
2018-08-11T00:35:08.830Z,17.23
2018-08-11T00:36:08.855Z,17.27
2018-08-11T00:37:08.881Z,17.20
2018-08-11T00:38:08.906Z,17.12
2018-08-11T00:39:08.921Z,17.19
2018-08-11T00:40:08.947Z,17.24
2018-08-11T00:41:08.973Z,17.22
2018-08-11T00:42:08.985Z,17.14
2018-08-11T00:43:09.012Z,17.16
2018-08-11T00:44:09.037Z,17.17
2018-08-11T00:45:09.052Z,17.19
2018-08-11T00:46:09.078Z,17.17
2018-08-11T00:47:09.105Z,17.16
2018-08-11T00:48:09.129Z,17.17
2018-08-11T00:49:09.142Z,17.12
2018-08-11T00:50:09.169Z,17.17
2018-08-11T00:51:09.183Z,17.17
2018-08-11T00:52:09.209Z,17.12
2018-08-11T00:53:09.236Z,17.17
2018-08-11T00:54:09.259Z,17.14
2018-08-11T00:55:09.275Z,17.13
2018-08-11T00:56:09.298Z,17.12
2018-08-11T00:57:09.324Z,17.12
2018-08-11T00:58:09.340Z,17.12
2018-08-11T00:59:09.364Z,17.09
2018-08-11T01:00:09.391Z,17.09
2018-08-11T01:01:09.404Z,17.07
2018-08-11T01:02:09.429Z,17.02
2018-08-11T01:03:09.455Z,17.07
2018-08-11T01:04:09.470Z,16.99
2018-08-11T01:05:09.496Z,17.01
2018-08-11T01:06:09.521Z,16.99
2018-08-11T01:07:09.534Z,16.98
2018-08-11T01:08:09.560Z,17.09
2018-08-11T01:09:09.585Z,17.01
2018-08-11T01:10:09.615Z,17.02
2018-08-11T01:11:09.626Z,17.01
2018-08-11T01:12:09.652Z,17.05
2018-08-11T01:13:09.666Z,17.04
2018-08-11T01:14:09.692Z,16.99
2018-08-11T01:15:09.716Z,16.99
2018-08-11T01:16:09.742Z,17.01
2018-08-11T01:17:09.757Z,17.04
2018-08-11T01:18:09.783Z,17.01
2018-08-11T01:19:09.808Z,17.07
2018-08-11T01:20:09.821Z,17.02
2018-08-11T01:21:09.848Z,16.99
2018-08-11T01:22:09.873Z,17.02
2018-08-11T01:23:09.887Z,16.97
2018-08-11T01:24:09.915Z,16.99
2018-08-11T01:25:09.943Z,17.01
2018-08-11T01:26:09.951Z,17.01
2018-08-11T01:27:09.978Z,16.91
2018-08-11T01:28:10.004Z,16.87
2018-08-11T01:29:10.018Z,16.87
2018-08-11T01:30:10.045Z,16.89
2018-08-11T01:31:10.070Z,16.89
2018-08-11T01:32:10.095Z,16.89
2018-08-11T01:33:10.109Z,16.87
2018-08-11T01:34:10.137Z,16.72
2018-08-11T01:35:10.148Z,16.68
2018-08-11T01:36:10.174Z,16.82
2018-08-11T01:37:10.201Z,16.79
2018-08-11T01:38:10.214Z,16.74
2018-08-11T01:39:10.238Z,16.76
2018-08-11T01:40:10.265Z,16.84
2018-08-11T01:41:10.279Z,16.76
2018-08-11T01:42:10.305Z,16.72
2018-08-11T01:43:10.330Z,16.69
2018-08-11T01:44:10.393Z,16.72
2018-08-11T01:45:10.383Z,16.65
2018-08-11T01:46:10.397Z,16.64
2018-08-11T01:47:10.411Z,16.64
2018-08-11T01:48:10.436Z,16.61
2018-08-11T01:49:10.464Z,16.66
2018-08-11T01:50:10.473Z,16.61
2018-08-11T01:51:10.504Z,16.59
2018-08-11T01:52:10.525Z,16.58
2018-08-11T01:53:10.540Z,16.55
2018-08-11T01:54:10.565Z,16.55
2018-08-11T01:55:10.591Z,16.57
2018-08-11T01:56:10.604Z,16.54
2018-08-11T01:57:10.630Z,16.50
2018-08-11T01:58:10.646Z,16.46
2018-08-11T01:59:10.671Z,16.46
2018-08-11T02:00:10.700Z,16.50
2018-08-11T02:01:10.711Z,16.44
2018-08-11T02:02:10.735Z,16.46
2018-08-11T02:03:10.761Z,16.40
2018-08-11T02:04:10.775Z,16.32
2018-08-11T02:05:10.802Z,16.34
2018-08-11T02:06:10.827Z,16.37
2018-08-11T02:07:10.840Z,16.37
2018-08-11T02:08:10.866Z,16.26
2018-08-11T02:09:10.894Z,16.37
2018-08-11T02:10:10.906Z,16.34
2018-08-11T02:11:10.936Z,16.29
2018-08-11T02:12:10.958Z,16.24
2018-08-11T02:13:10.970Z,16.26
2018-08-11T02:14:10.997Z,16.22
2018-08-11T02:15:11.011Z,16.24
2018-08-11T02:16:11.037Z,16.26
2018-08-11T02:17:11.063Z,16.18
2018-08-11T02:18:11.076Z,16.10
2018-08-11T02:19:11.102Z,16.16
2018-08-11T02:20:11.127Z,16.12
2018-08-11T02:21:11.142Z,16.05
2018-08-11T02:22:11.168Z,16.13
2018-08-11T02:23:11.193Z,16.10
2018-08-11T02:24:11.205Z,16.03
2018-08-11T02:25:11.232Z,16.05
2018-08-11T02:26:11.246Z,15.99
2018-08-11T02:27:11.272Z,16.06
2018-08-11T02:28:11.297Z,15.99
2018-08-11T02:29:11.310Z,15.96
2018-08-11T02:30:11.355Z,15.92
2018-08-11T02:31:11.363Z,15.90
2018-08-11T02:32:11.377Z,15.98
2018-08-11T02:33:11.402Z,15.99
2018-08-11T02:34:11.426Z,15.94
2018-08-11T02:35:11.441Z,16.05
2018-08-11T02:36:11.469Z,16.06
2018-08-11T02:37:11.481Z,16.03
2018-08-11T02:38:11.507Z,16.03
2018-08-11T02:39:11.535Z,16.10
2018-08-11T02:40:11.546Z,16.17
2018-08-11T02:41:11.571Z,16.05
2018-08-11T02:42:11.586Z,16.09
2018-08-11T02:43:11.612Z,16.09
2018-08-11T02:44:11.637Z,16.21
2018-08-11T02:45:11.651Z,16.22
2018-08-11T02:46:11.677Z,16.26
2018-08-11T02:47:11.701Z,16.25
2018-08-11T02:48:11.717Z,16.18
2018-08-11T02:49:11.742Z,16.21
2018-08-11T02:50:11.768Z,16.26
2018-08-11T02:51:11.781Z,16.25
2018-08-11T02:52:11.806Z,16.26
2018-08-11T02:53:11.833Z,16.26
2018-08-11T02:54:11.846Z,16.25
2018-08-11T02:55:11.873Z,16.32
2018-08-11T02:56:11.886Z,16.26
2018-08-11T02:57:11.911Z,16.34
2018-08-11T02:58:11.936Z,16.29
2018-08-11T02:59:11.954Z,16.28
2018-08-11T03:00:11.981Z,16.36
2018-08-11T03:01:12.003Z,16.29
2018-08-11T03:02:12.016Z,16.40
2018-08-11T03:03:12.041Z,16.34
2018-08-11T03:04:12.068Z,16.39
2018-08-11T03:05:12.143Z,16.39
2018-08-11T03:06:12.108Z,16.29
2018-08-11T03:07:12.121Z,16.41
2018-08-11T03:08:12.147Z,16.39
2018-08-11T03:09:12.172Z,16.32
2018-08-11T03:10:12.186Z,16.31
2018-08-11T03:11:12.212Z,16.26
2018-08-11T03:12:12.237Z,16.29
2018-08-11T03:13:12.251Z,16.32
2018-08-11T03:14:12.277Z,16.34
2018-08-11T03:15:12.305Z,16.32
2018-08-11T03:16:12.317Z,16.40
2018-08-11T03:17:12.343Z,16.32
2018-08-11T03:18:12.369Z,16.34
2018-08-11T03:19:12.381Z,16.36
2018-08-11T03:20:12.424Z,16.24
2018-08-11T03:21:12.446Z,16.34
2018-08-11T03:22:12.447Z,16.26
2018-08-11T03:23:12.473Z,16.26
2018-08-11T03:24:12.486Z,16.24
2018-08-11T03:25:12.513Z,16.18
2018-08-11T03:26:12.538Z,16.21
2018-08-11T03:27:12.552Z,16.18
2018-08-11T03:28:12.579Z,16.13
2018-08-11T03:29:12.613Z,16.08
2018-08-11T03:30:12.617Z,16.12
2018-08-11T03:31:12.643Z,16.12
2018-08-11T03:32:12.657Z,16.16
2018-08-11T03:33:12.696Z,16.05
2018-08-11T03:34:12.708Z,16.17
2018-08-11T03:35:12.736Z,16.06
2018-08-11T03:36:12.753Z,16.12
2018-08-11T03:37:12.773Z,16.02
2018-08-11T03:38:12.787Z,16.03
2018-08-11T03:39:12.814Z,16.02
2018-08-11T03:40:12.827Z,16.00
2018-08-11T03:41:12.852Z,16.03
2018-08-11T03:42:12.890Z,15.92
2018-08-11T03:43:12.892Z,15.92
2018-08-11T03:44:12.917Z,15.88
2018-08-11T03:45:12.944Z,15.92
2018-08-11T03:46:12.957Z,15.94
2018-08-11T03:47:12.982Z,15.92
2018-08-11T03:48:13.008Z,15.83
2018-08-11T03:49:13.023Z,15.87
2018-08-11T03:50:13.048Z,15.84
2018-08-11T03:51:13.061Z,15.73
2018-08-11T03:52:13.087Z,15.78
2018-08-11T03:53:13.114Z,15.83
2018-08-11T03:54:13.127Z,15.80
2018-08-11T03:55:13.153Z,15.70
2018-08-11T03:56:13.179Z,15.67
2018-08-11T03:57:13.192Z,15.69
2018-08-11T03:58:13.218Z,15.67
2018-08-11T03:59:13.231Z,15.67
2018-08-11T04:00:13.264Z,15.70
2018-08-11T04:01:13.283Z,15.66
2018-08-11T04:02:13.295Z,15.65
2018-08-11T04:03:13.322Z,15.63
2018-08-11T04:04:13.335Z,15.62
2018-08-11T04:05:13.363Z,15.60
2018-08-11T04:06:13.388Z,15.57
2018-08-11T04:07:13.401Z,15.62
2018-08-11T04:08:13.427Z,15.57
2018-08-11T04:09:13.441Z,15.57
2018-08-11T04:10:13.467Z,15.51
2018-08-11T04:11:13.494Z,15.48
2018-08-11T04:12:13.505Z,15.51
2018-08-11T04:13:13.531Z,15.52
2018-08-11T04:14:13.546Z,15.45
2018-08-11T04:15:13.571Z,15.44
2018-08-11T04:16:13.597Z,15.47
2018-08-11T04:17:13.611Z,15.37
2018-08-11T04:18:13.636Z,15.41
2018-08-11T04:19:13.661Z,15.37
2018-08-11T04:20:13.676Z,15.37
2018-08-11T04:21:13.702Z,15.44
2018-08-11T04:22:13.714Z,15.35
2018-08-11T04:23:13.740Z,15.41
2018-08-11T04:24:13.757Z,15.39
2018-08-11T04:25:13.781Z,15.39
2018-08-11T04:26:13.806Z,15.39
2018-08-11T04:27:13.819Z,15.39
2018-08-11T04:28:13.846Z,15.41
2018-08-11T04:29:13.871Z,15.35
2018-08-11T04:30:13.887Z,15.41
2018-08-11T04:31:13.911Z,15.43
2018-08-11T04:32:13.924Z,15.41
2018-08-11T04:33:13.950Z,15.44
2018-08-11T04:34:13.989Z,15.44
2018-08-11T04:35:13.990Z,15.45
2018-08-11T04:36:14.017Z,15.50
2018-08-11T04:37:14.029Z,15.47
2018-08-11T04:38:14.054Z,15.45
2018-08-11T04:39:14.081Z,15.47
2018-08-11T04:40:14.095Z,15.50
2018-08-11T04:41:14.121Z,15.50
2018-08-11T04:42:14.134Z,15.51
2018-08-11T04:43:14.159Z,15.50
2018-08-11T04:44:14.185Z,15.45
2018-08-11T04:45:14.199Z,15.54
2018-08-11T04:46:14.226Z,15.55
2018-08-11T04:47:14.239Z,15.57
2018-08-11T04:48:14.277Z,15.59
2018-08-11T04:49:14.289Z,15.60
2018-08-11T04:50:14.306Z,15.59
2018-08-11T04:51:14.331Z,15.67
2018-08-11T04:52:14.356Z,15.66
2018-08-11T04:53:14.369Z,15.67
2018-08-11T04:54:14.395Z,15.78
2018-08-11T04:55:14.409Z,15.80
2018-08-11T04:56:14.434Z,15.76
2018-08-11T04:57:14.461Z,15.84
2018-08-11T04:58:14.475Z,15.85
2018-08-11T04:59:14.500Z,15.91
2018-08-11T05:00:14.526Z,15.92
2018-08-11T05:01:14.539Z,15.92
2018-08-11T05:02:14.565Z,15.90
2018-08-11T05:03:14.581Z,15.92
2018-08-11T05:04:14.604Z,16.02
2018-08-11T05:05:14.633Z,16.02
2018-08-11T05:06:14.644Z,16.05
2018-08-11T05:07:14.671Z,16.12
2018-08-11T05:08:14.696Z,16.10
2018-08-11T05:09:14.722Z,16.08
2018-08-11T05:10:14.737Z,16.16
2018-08-11T05:11:14.760Z,16.09
2018-08-11T05:12:14.775Z,16.18
2018-08-11T05:13:14.802Z,16.24
2018-08-11T05:14:14.826Z,16.25
2018-08-11T05:15:14.839Z,16.28
2018-08-11T05:16:14.879Z,16.37
2018-08-11T05:17:14.892Z,16.31
2018-08-11T05:18:14.905Z,16.36
2018-08-11T05:19:14.932Z,16.31
2018-08-11T05:20:14.957Z,16.34
2018-08-11T05:21:14.970Z,16.39
2018-08-11T05:22:14.998Z,16.43
2018-08-11T05:23:15.022Z,16.49
2018-08-11T05:24:15.036Z,16.59
2018-08-11T05:25:15.065Z,16.65
2018-08-11T05:26:15.098Z,16.65
2018-08-11T05:27:15.111Z,16.74
2018-08-11T05:28:15.130Z,16.79
2018-08-11T05:29:15.155Z,16.76
2018-08-11T05:30:15.166Z,16.80
2018-08-11T05:31:15.193Z,16.83
2018-08-11T05:32:15.218Z,16.87
2018-08-11T05:33:15.261Z,16.97
2018-08-11T05:34:15.257Z,16.97
2018-08-11T05:35:15.282Z,17.01
2018-08-11T05:36:15.299Z,17.12
2018-08-11T05:37:15.323Z,17.13
2018-08-11T05:38:15.348Z,17.17
2018-08-11T05:39:15.362Z,17.31
2018-08-11T05:40:15.403Z,17.30
2018-08-11T05:41:15.414Z,17.38
2018-08-11T05:42:15.431Z,17.42
2018-08-11T05:43:15.453Z,17.39
2018-08-11T05:44:15.480Z,17.50
2018-08-11T05:45:15.506Z,17.53
2018-08-11T05:46:15.518Z,17.56
2018-08-11T05:47:15.544Z,17.63
2018-08-11T05:48:15.571Z,17.52
2018-08-11T05:49:15.584Z,17.66
2018-08-11T05:50:15.611Z,17.69
2018-08-11T05:51:15.638Z,17.66
2018-08-11T05:52:15.662Z,17.73
2018-08-11T05:53:15.676Z,17.82
2018-08-11T05:54:15.702Z,17.84
2018-08-11T05:55:15.782Z,17.88
2018-08-11T05:56:15.741Z,17.91
2018-08-11T05:57:15.766Z,17.91
2018-08-11T05:58:15.792Z,17.91
2018-08-11T05:59:15.818Z,17.95
2018-08-11T06:00:15.845Z,17.94
2018-08-11T06:01:15.857Z,18.00
2018-08-11T06:02:15.883Z,18.00
2018-08-11T06:03:15.917Z,18.09
2018-08-11T06:04:15.923Z,18.13
2018-08-11T06:05:15.949Z,18.16
2018-08-11T06:06:15.975Z,18.18
2018-08-11T06:07:15.988Z,18.27
2018-08-11T06:08:16.014Z,18.19
2018-08-11T06:09:16.040Z,18.15
2018-08-11T06:10:16.067Z,18.27
2018-08-11T06:11:16.081Z,18.36
2018-08-11T06:12:16.106Z,18.34
2018-08-11T06:13:16.132Z,18.39
2018-08-11T06:14:16.157Z,18.45
2018-08-11T06:15:16.171Z,18.48
2018-08-11T06:16:16.209Z,18.42
2018-08-11T06:17:16.222Z,18.48
2018-08-11T06:18:16.248Z,18.48
2018-08-11T06:19:16.274Z,18.48
2018-08-11T06:20:16.288Z,18.53
2018-08-11T06:21:16.428Z,18.61
2018-08-11T06:22:16.340Z,18.63
2018-08-11T06:23:16.366Z,18.66
2018-08-11T06:24:16.380Z,18.64
2018-08-11T06:25:16.656Z,18.67
2018-08-11T06:26:16.433Z,18.79
2018-08-11T06:27:16.456Z,18.82
2018-08-11T06:28:16.473Z,18.85
2018-08-11T06:29:16.499Z,18.89
2018-08-11T06:30:16.524Z,19.01
2018-08-11T06:31:16.594Z,19.01
2018-08-11T06:32:16.620Z,19.12
2018-08-11T06:33:16.588Z,19.20
2018-08-11T06:34:16.613Z,19.30
2018-08-11T06:35:16.665Z,19.34
2018-08-11T06:36:16.665Z,19.39
2018-08-11T06:37:16.692Z,19.60
2018-08-11T06:38:16.705Z,19.72
2018-08-11T06:39:16.731Z,19.77
2018-08-11T06:40:16.756Z,19.87
2018-08-11T06:41:16.786Z,20.03
2018-08-11T06:42:16.809Z,20.17
2018-08-11T06:43:16.837Z,20.24
2018-08-11T06:44:16.860Z,20.42
2018-08-11T06:45:16.889Z,20.63
2018-08-11T06:46:16.900Z,20.88
2018-08-11T06:47:16.925Z,21.05
2018-08-11T06:48:16.953Z,21.07
2018-08-11T06:49:16.978Z,21.33
2018-08-11T06:50:17.003Z,21.48
2018-08-11T06:51:17.029Z,21.48
2018-08-11T06:52:17.054Z,21.65
2018-08-11T06:53:17.081Z,21.88
2018-08-11T06:54:17.106Z,21.99
2018-08-11T06:55:17.132Z,22.08
2018-08-11T06:56:17.158Z,22.33
2018-08-11T06:57:17.185Z,22.36
2018-08-11T06:58:17.213Z,22.47
2018-08-11T06:59:17.237Z,22.47
2018-08-11T07:00:17.276Z,22.53
2018-08-11T07:01:17.300Z,22.43
2018-08-11T07:02:17.327Z,22.46
2018-08-11T07:03:17.353Z,22.49
2018-08-11T07:04:17.379Z,22.40
2018-08-11T07:05:17.404Z,22.43
2018-08-11T07:06:17.433Z,22.46
2018-08-11T07:07:17.460Z,22.44
2018-08-11T07:08:17.482Z,22.46
2018-08-11T07:09:17.508Z,22.44
2018-08-11T07:10:17.535Z,22.44
2018-08-11T07:11:17.561Z,22.55
2018-08-11T07:12:17.586Z,22.47
2018-08-11T07:13:17.613Z,22.61
2018-08-11T07:14:17.638Z,22.55
2018-08-11T07:15:17.694Z,22.67
2018-08-11T07:16:17.690Z,22.78
2018-08-11T07:17:17.716Z,22.77
2018-08-11T07:18:17.744Z,22.86
2018-08-11T07:19:17.768Z,22.91
2018-08-11T07:20:17.795Z,22.96
2018-08-11T07:21:17.824Z,22.95
2018-08-11T07:22:17.850Z,22.92
2018-08-11T07:23:17.872Z,22.96
2018-08-11T07:24:17.899Z,22.96
2018-08-11T07:25:17.924Z,23.04
2018-08-11T07:26:17.951Z,23.01
2018-08-11T07:27:17.987Z,22.99
2018-08-11T07:28:18.014Z,22.96
2018-08-11T07:29:18.051Z,23.01
2018-08-11T07:30:18.108Z,22.88
2018-08-11T07:31:18.091Z,22.89
2018-08-11T07:32:18.117Z,22.96
2018-08-11T07:33:18.144Z,22.99
2018-08-11T07:34:18.169Z,22.99
2018-08-11T07:35:18.198Z,23.01
2018-08-11T07:36:18.296Z,23.07
2018-08-11T07:37:18.248Z,23.04
2018-08-11T07:38:18.273Z,23.13
2018-08-11T07:39:18.299Z,23.25
2018-08-11T07:40:18.326Z,23.17
2018-08-11T07:41:18.350Z,23.20
2018-08-11T07:42:18.377Z,23.28
2018-08-11T07:43:18.409Z,23.40
2018-08-11T07:44:18.442Z,23.32
2018-08-11T07:45:18.468Z,23.48
2018-08-11T07:46:18.496Z,23.49
2018-08-11T07:47:18.520Z,23.56
2018-08-11T07:48:18.547Z,23.64
2018-08-11T07:49:18.571Z,23.71
2018-08-11T07:50:18.610Z,23.77
2018-08-11T07:51:18.623Z,23.92
2018-08-11T07:52:18.649Z,23.96
2018-08-11T07:53:18.686Z,24.01
2018-08-11T07:54:18.713Z,24.11
2018-08-11T07:55:18.741Z,24.18
2018-08-11T07:56:18.766Z,24.10
2018-08-11T07:57:18.792Z,24.24
2018-08-11T07:58:18.816Z,24.25
2018-08-11T07:59:18.842Z,24.37
2018-08-11T08:00:18.881Z,24.37
2018-08-11T08:01:18.933Z,24.41
2018-08-11T08:02:18.933Z,24.38
2018-08-11T08:03:18.959Z,24.38
2018-08-11T08:04:18.985Z,24.44
2018-08-11T08:05:19.011Z,24.43
2018-08-11T08:06:19.038Z,24.51
2018-08-11T08:07:19.064Z,24.51
2018-08-11T08:08:19.101Z,24.37
2018-08-11T08:09:19.126Z,24.38
2018-08-11T08:10:19.153Z,24.47
2018-08-11T08:11:19.180Z,24.50
2018-08-11T08:12:19.204Z,24.46
2018-08-11T08:13:19.233Z,24.41
2018-08-11T08:14:19.257Z,24.38
2018-08-11T08:15:19.296Z,24.37
2018-08-11T08:16:19.321Z,24.44
2018-08-11T08:17:19.353Z,24.40
2018-08-11T08:18:19.373Z,24.36
2018-08-11T08:19:19.400Z,24.44
2018-08-11T08:20:19.425Z,24.41
2018-08-11T08:21:19.455Z,24.46
2018-08-11T08:22:19.480Z,24.47
2018-08-11T08:23:19.515Z,24.44
2018-08-11T08:24:19.540Z,24.48
2018-08-11T08:25:19.568Z,24.53
2018-08-11T08:26:19.754Z,24.59
2018-08-11T08:27:19.621Z,24.59
2018-08-11T08:28:19.645Z,24.62
2018-08-11T08:29:19.670Z,24.61
2018-08-11T08:30:19.698Z,24.71
2018-08-11T08:31:19.736Z,24.62
2018-08-11T08:32:19.761Z,24.58
2018-08-11T08:33:19.787Z,24.68
2018-08-11T08:34:19.817Z,24.78
2018-08-11T08:35:19.839Z,24.77
2018-08-11T08:36:19.865Z,24.75
2018-08-11T08:37:19.903Z,24.63
2018-08-11T08:38:19.929Z,24.79
2018-08-11T08:39:19.954Z,24.81
2018-08-11T08:40:19.980Z,24.75
2018-08-11T08:41:20.007Z,24.81
2018-08-11T08:42:20.034Z,24.77
2018-08-11T08:43:20.059Z,24.79
2018-08-11T08:44:20.099Z,24.78
2018-08-11T08:45:20.124Z,24.82
2018-08-11T08:46:20.149Z,24.86
2018-08-11T08:47:20.186Z,24.88
2018-08-11T08:48:20.203Z,24.85
2018-08-11T08:49:20.252Z,24.88
2018-08-11T08:50:20.265Z,24.89
2018-08-11T08:51:20.292Z,24.82
2018-08-11T08:52:20.317Z,24.82
2018-08-11T08:53:20.423Z,24.81
2018-08-11T08:54:20.372Z,24.84
2018-08-11T08:55:20.400Z,24.81
2018-08-11T08:56:20.435Z,24.78
2018-08-11T08:57:20.460Z,24.82
2018-08-11T08:58:20.487Z,24.75
2018-08-11T08:59:20.512Z,24.69
2018-08-11T09:00:20.538Z,24.81
2018-08-11T09:01:20.564Z,24.75
2018-08-11T09:02:20.601Z,24.71
2018-08-11T09:03:20.627Z,24.75
2018-08-11T09:04:20.654Z,24.77
2018-08-11T09:05:20.679Z,24.78
2018-08-11T09:06:20.705Z,24.66
2018-08-11T09:07:20.734Z,24.66
2018-08-11T09:08:20.757Z,24.77
2018-08-11T09:09:20.796Z,24.77
2018-08-11T09:10:20.822Z,24.66
2018-08-11T09:11:20.848Z,24.79
2018-08-11T09:12:20.874Z,24.88
2018-08-11T09:13:20.900Z,24.79
2018-08-11T09:14:20.926Z,24.85
2018-08-11T09:15:20.952Z,24.77
2018-08-11T09:16:20.989Z,24.92
2018-08-11T09:17:21.016Z,24.94
2018-08-11T09:18:21.045Z,25.01
2018-08-11T09:19:21.119Z,25.15
2018-08-11T09:20:21.092Z,25.25
2018-08-11T09:21:21.119Z,25.31
2018-08-11T09:22:21.157Z,25.48
2018-08-11T09:23:21.183Z,25.46
2018-08-11T09:24:21.209Z,25.39
2018-08-11T09:25:21.235Z,25.37
2018-08-11T09:26:21.261Z,25.54
2018-08-11T09:27:21.301Z,25.52
2018-08-11T09:28:21.325Z,25.49
2018-08-11T09:29:21.389Z,25.46
2018-08-11T09:30:21.378Z,25.48
2018-08-11T09:31:21.403Z,25.39
2018-08-11T09:32:21.441Z,25.46
2018-08-11T09:33:21.468Z,25.34
2018-08-11T09:34:21.493Z,25.48
2018-08-11T09:35:21.520Z,25.33
2018-08-11T09:36:21.546Z,25.29
2018-08-11T09:37:21.583Z,25.29
2018-08-11T09:38:21.665Z,25.26
2018-08-11T09:39:21.639Z,25.19
2018-08-11T09:40:21.661Z,25.24
2018-08-11T09:41:21.687Z,25.25
2018-08-11T09:42:21.713Z,25.24
2018-08-11T09:43:21.751Z,25.31
2018-08-11T09:44:21.778Z,25.30
2018-08-11T09:45:21.803Z,25.31
2018-08-11T09:46:21.830Z,25.24
2018-08-11T09:47:21.855Z,25.21
2018-08-11T09:48:21.883Z,25.21
2018-08-11T09:49:21.921Z,25.19
2018-08-11T09:50:21.945Z,25.15
2018-08-11T09:51:21.970Z,25.04
2018-08-11T09:52:22.035Z,24.99
2018-08-11T09:53:22.024Z,24.94
2018-08-11T09:54:22.049Z,24.84
2018-08-11T09:55:22.085Z,24.84
2018-08-11T09:56:22.113Z,24.78
2018-08-11T09:57:22.140Z,24.74
2018-08-11T09:58:22.165Z,24.74
2018-08-11T09:59:22.193Z,24.71
2018-08-11T10:00:22.221Z,24.68
2018-08-11T10:01:22.244Z,24.71
2018-08-11T10:02:22.270Z,24.59
2018-08-11T10:03:22.298Z,24.58
2018-08-11T10:04:22.334Z,24.53
2018-08-11T10:05:22.359Z,24.41
2018-08-11T10:06:22.384Z,24.36
2018-08-11T10:07:22.415Z,24.38
2018-08-11T10:08:22.439Z,24.26
2018-08-11T10:09:22.466Z,24.22
2018-08-11T10:10:22.489Z,24.21
2018-08-11T10:11:22.527Z,24.21
2018-08-11T10:12:22.540Z,24.24
2018-08-11T10:13:22.567Z,24.19
2018-08-11T10:14:22.608Z,24.19
2018-08-11T10:15:22.630Z,24.24
2018-08-11T10:16:22.657Z,24.26
2018-08-11T10:17:22.683Z,24.25
2018-08-11T10:18:22.745Z,24.38
2018-08-11T10:19:22.734Z,24.40
2018-08-11T10:20:22.762Z,24.44
2018-08-11T10:21:22.786Z,24.53
2018-08-11T10:22:22.812Z,24.62
2018-08-11T10:23:22.838Z,24.71
2018-08-11T10:24:22.876Z,24.86
2018-08-11T10:25:22.915Z,24.84
2018-08-11T10:26:22.932Z,24.89
2018-08-11T10:27:22.954Z,24.99
2018-08-11T10:28:22.983Z,25.14
2018-08-11T10:29:23.010Z,25.16
2018-08-11T10:30:23.049Z,25.29
2018-08-11T10:31:23.074Z,25.41
2018-08-11T10:32:23.100Z,25.43
2018-08-11T10:33:23.123Z,25.40
2018-08-11T10:34:23.149Z,25.54
2018-08-11T10:35:23.186Z,25.52
2018-08-11T10:36:23.214Z,25.58
2018-08-11T10:37:23.240Z,25.59
2018-08-11T10:38:23.264Z,25.59
2018-08-11T10:39:23.309Z,25.62
2018-08-11T10:40:23.331Z,25.51
2018-08-11T10:41:23.356Z,25.56
2018-08-11T10:42:23.381Z,25.59
2018-08-11T10:43:23.407Z,25.52
2018-08-11T10:44:23.445Z,25.59
2018-08-11T10:45:23.471Z,25.58
2018-08-11T10:46:23.502Z,25.67
2018-08-11T10:47:23.523Z,25.73
2018-08-11T10:48:23.565Z,25.71
2018-08-11T10:49:23.589Z,25.76
2018-08-11T10:50:23.615Z,25.80
2018-08-11T10:51:23.644Z,25.77
2018-08-11T10:52:23.667Z,25.83
2018-08-11T10:53:23.704Z,25.77
2018-08-11T10:54:23.733Z,25.83
2018-08-11T10:55:23.755Z,25.77
2018-08-11T10:56:23.784Z,25.81
2018-08-11T10:57:23.820Z,25.86
2018-08-11T10:58:23.850Z,25.86
2018-08-11T10:59:23.875Z,25.99
2018-08-11T11:00:23.924Z,26.04
2018-08-11T11:01:24.004Z,26.24
2018-08-11T11:02:23.962Z,26.33
2018-08-11T11:03:23.989Z,26.41
2018-08-11T11:04:24.028Z,26.55
2018-08-11T11:05:24.053Z,26.74
2018-08-11T11:06:24.080Z,27.00
2018-08-11T11:07:24.117Z,27.23
2018-08-11T11:08:24.172Z,27.50
2018-08-11T11:09:24.182Z,27.68
2018-08-11T11:10:24.208Z,27.83
2018-08-11T11:11:24.247Z,28.15
2018-08-11T11:12:24.272Z,28.18
2018-08-11T11:13:24.311Z,28.31
2018-08-11T11:14:24.396Z,28.20
2018-08-11T11:15:24.374Z,28.09
2018-08-11T11:16:24.416Z,28.13
2018-08-11T11:17:24.440Z,28.13
2018-08-11T11:18:24.480Z,28.34
2018-08-11T11:19:24.517Z,28.25
2018-08-11T11:20:24.543Z,28.35
2018-08-11T11:21:24.591Z,28.27
2018-08-11T11:22:24.607Z,28.31
2018-08-11T11:23:24.645Z,28.49
2018-08-11T11:24:24.683Z,28.56
2018-08-11T11:25:24.710Z,28.67
2018-08-11T11:26:24.753Z,28.83
2018-08-11T11:27:24.786Z,28.89
2018-08-11T11:28:24.814Z,28.87
2018-08-11T11:29:24.851Z,28.94
2018-08-11T11:30:24.877Z,29.05
2018-08-11T11:31:24.931Z,29.07
2018-08-11T11:32:24.953Z,29.35
2018-08-11T11:33:24.992Z,29.39
2018-08-11T11:34:25.018Z,29.59
2018-08-11T11:35:25.057Z,29.79
2018-08-11T11:36:25.094Z,29.81
2018-08-11T11:37:25.171Z,29.94
2018-08-11T11:38:25.161Z,30.16
2018-08-11T11:39:25.197Z,30.36
2018-08-11T11:40:25.236Z,30.46
2018-08-11T11:41:25.273Z,30.71
2018-08-11T11:42:25.299Z,30.76
2018-08-11T11:43:25.363Z,30.73
2018-08-11T11:44:25.391Z,30.89
2018-08-11T11:45:25.418Z,31.08
2018-08-11T11:46:25.456Z,31.00
2018-08-11T11:47:25.492Z,31.14
2018-08-11T11:48:25.530Z,31.28
2018-08-11T11:49:25.570Z,31.32
2018-08-11T11:50:25.595Z,31.41
2018-08-11T11:51:25.632Z,31.72
2018-08-11T11:52:25.671Z,31.95
2018-08-11T11:53:25.711Z,32.01
2018-08-11T11:54:25.748Z,32.19
2018-08-11T11:55:25.786Z,32.35
2018-08-11T11:56:25.825Z,32.34
2018-08-11T11:57:25.865Z,32.51
2018-08-11T11:58:25.904Z,32.51
2018-08-11T11:59:25.939Z,32.39
2018-08-11T12:00:25.967Z,32.45
2018-08-11T12:01:26.006Z,32.57
2018-08-11T12:02:26.044Z,32.67
2018-08-11T12:03:26.082Z,32.71
2018-08-11T12:04:26.119Z,32.78
2018-08-11T12:05:26.158Z,32.88
2018-08-11T12:06:26.196Z,32.95
2018-08-11T12:07:26.236Z,33.05
2018-08-11T12:08:26.274Z,32.94
2018-08-11T12:09:26.313Z,32.79
2018-08-11T12:10:26.350Z,32.67
2018-08-11T12:11:26.389Z,32.46
2018-08-11T12:12:26.430Z,32.51
2018-08-11T12:13:26.466Z,32.46
2018-08-11T12:14:26.504Z,32.44
2018-08-11T12:15:26.544Z,32.39
2018-08-11T12:16:26.581Z,32.41
2018-08-11T12:17:26.612Z,32.51
2018-08-11T12:18:26.646Z,32.59
2018-08-11T12:19:26.723Z,32.67
2018-08-11T12:20:26.722Z,32.72
2018-08-11T12:21:26.762Z,32.85
2018-08-11T12:22:26.799Z,32.93
2018-08-11T12:23:26.838Z,33.08
2018-08-11T12:24:26.876Z,33.20
2018-08-11T12:25:26.915Z,33.28
2018-08-11T12:26:26.954Z,33.17
2018-08-11T12:27:26.991Z,33.32
2018-08-11T12:28:27.033Z,33.45
2018-08-11T12:29:27.080Z,33.33
2018-08-11T12:30:27.094Z,33.33
2018-08-11T12:31:27.136Z,32.95
2018-08-11T12:32:27.171Z,32.78
2018-08-11T12:33:27.212Z,32.60
2018-08-11T12:34:27.247Z,32.39
2018-08-11T12:35:27.286Z,32.08
2018-08-11T12:36:27.324Z,31.79
2018-08-11T12:37:27.366Z,31.37
2018-08-11T12:38:27.390Z,31.20
2018-08-11T12:39:27.428Z,31.13
2018-08-11T12:40:27.466Z,31.14
2018-08-11T12:41:27.504Z,30.93
2018-08-11T12:42:27.530Z,30.74
2018-08-11T12:43:27.568Z,30.59
2018-08-11T12:44:27.607Z,30.39
2018-08-11T12:45:27.650Z,30.10
2018-08-11T12:46:27.672Z,29.77
2018-08-11T12:47:27.710Z,29.68
2018-08-11T12:48:27.739Z,29.74
2018-08-11T12:49:27.776Z,29.68
2018-08-11T12:50:27.801Z,29.80
2018-08-11T12:51:27.838Z,29.84
2018-08-11T12:52:27.877Z,29.90